sensor_id;sensor_type;location;lat;lon;timestamp;P1;durP1;ratioP1;P2;durP2;ratioP2
3417;SDS011;68007;51.312;12.372;2023-05-03T00:00:06;6.73;;;2.30;;
3417;SDS011;68007;51.312;12.372;2023-05-03T00:02:35;5.93;;;2.00;;
3417;SDS011;68007;51.312;12.372;2023-05-03T00:05:04;5.53;;;2.10;;
3417;SDS011;68007;51.312;12.372;2023-05-03T00:07:33;4.63;;;2.23;;
3417;SDS011;68007;51.312;12.372;2023-05-03T00:10:02;4.70;;;2.50;;
3417;SDS011;68007;51.312;12.372;2023-05-03T00:12:31;7.70;;;2.93;;
3417;SDS011;68007;51.312;12.372;2023-05-03T00:14:59;4.93;;;2.10;;
3417;SDS011;68007;51.312;12.372;2023-05-03T00:17:29;4.50;;;1.87;;
3417;SDS011;68007;51.312;12.372;2023-05-03T00:19:57;3.60;;;2.13;;
3417;SDS011;68007;51.312;12.372;2023-05-03T00:22:25;5.03;;;2.33;;
3417;SDS011;68007;51.312;12.372;2023-05-03T00:24:52;3.37;;;2.17;;
3417;SDS011;68007;51.312;12.372;2023-05-03T00:27:22;5.30;;;2.00;;
3417;SDS011;68007;51.312;12.372;2023-05-03T00:29:50;8.93;;;2.40;;
3417;SDS011;68007;51.312;12.372;2023-05-03T00:32:18;8.00;;;2.63;;
3417;SDS011;68007;51.312;12.372;2023-05-03T00:34:51;4.30;;;2.17;;
3417;SDS011;68007;51.312;12.372;2023-05-03T00:37:19;5.10;;;2.23;;
3417;SDS011;68007;51.312;12.372;2023-05-03T00:39:46;5.50;;;2.43;;
3417;SDS011;68007;51.312;12.372;2023-05-03T00:42:14;6.07;;;2.60;;
3417;SDS011;68007;51.312;12.372;2023-05-03T00:44:43;5.53;;;2.00;;
3417;SDS011;68007;51.312;12.372;2023-05-03T00:47:11;4.60;;;2.30;;
3417;SDS011;68007;51.312;12.372;2023-05-03T00:49:38;4.77;;;2.30;;
3417;SDS011;68007;51.312;12.372;2023-05-03T00:52:06;9.13;;;2.63;;
3417;SDS011;68007;51.312;12.372;2023-05-03T00:54:35;3.60;;;2.27;;
3417;SDS011;68007;51.312;12.372;2023-05-03T00:57:03;6.03;;;2.27;;
3417;SDS011;68007;51.312;12.372;2023-05-03T00:59:31;10.17;;;3.00;;
3417;SDS011;68007;51.312;12.372;2023-05-03T01:02:00;5.00;;;2.17;;
3417;SDS011;68007;51.312;12.372;2023-05-03T01:04:29;6.27;;;2.87;;
3417;SDS011;68007;51.312;12.372;2023-05-03T01:07:00;8.47;;;2.23;;
3417;SDS011;68007;51.312;12.372;2023-05-03T01:09:37;6.87;;;2.67;;
3417;SDS011;68007;51.312;12.372;2023-05-03T01:12:14;3.33;;;1.90;;
3417;SDS011;68007;51.312;12.372;2023-05-03T01:14:53;2.70;;;1.87;;
3417;SDS011;68007;51.312;12.372;2023-05-03T01:17:28;15.53;;;2.63;;
3417;SDS011;68007;51.312;12.372;2023-05-03T01:20:03;2.87;;;2.07;;
3417;SDS011;68007;51.312;12.372;2023-05-03T01:22:37;5.00;;;2.57;;
3417;SDS011;68007;51.312;12.372;2023-05-03T01:25:11;3.93;;;2.00;;
3417;SDS011;68007;51.312;12.372;2023-05-03T01:27:41;5.00;;;2.47;;
3417;SDS011;68007;51.312;12.372;2023-05-03T01:30:09;6.03;;;2.90;;
3417;SDS011;68007;51.312;12.372;2023-05-03T01:32:45;12.20;;;2.43;;
3417;SDS011;68007;51.312;12.372;2023-05-03T01:35:24;4.93;;;2.20;;
3417;SDS011;68007;51.312;12.372;2023-05-03T01:37:55;7.30;;;2.37;;
3417;SDS011;68007;51.312;12.372;2023-05-03T01:40:25;9.13;;;2.87;;
3417;SDS011;68007;51.312;12.372;2023-05-03T01:42:55;7.03;;;2.80;;
3417;SDS011;68007;51.312;12.372;2023-05-03T01:45:23;9.83;;;3.70;;
3417;SDS011;68007;51.312;12.372;2023-05-03T01:47:51;9.17;;;3.20;;
3417;SDS011;68007;51.312;12.372;2023-05-03T01:50:19;4.20;;;2.63;;
3417;SDS011;68007;51.312;12.372;2023-05-03T01:52:46;5.20;;;2.97;;
3417;SDS011;68007;51.312;12.372;2023-05-03T01:55:16;7.80;;;2.90;;
3417;SDS011;68007;51.312;12.372;2023-05-03T01:57:45;8.20;;;2.70;;
3417;SDS011;68007;51.312;12.372;2023-05-03T02:00:13;5.60;;;2.70;;
3417;SDS011;68007;51.312;12.372;2023-05-03T02:02:40;6.90;;;2.90;;
3417;SDS011;68007;51.312;12.372;2023-05-03T02:05:08;3.17;;;2.43;;
3417;SDS011;68007;51.312;12.372;2023-05-03T02:07:36;6.87;;;3.47;;
3417;SDS011;68007;51.312;12.372;2023-05-03T02:10:04;5.73;;;3.23;;
3417;SDS011;68007;51.312;12.372;2023-05-03T02:12:32;9.40;;;3.13;;
3417;SDS011;68007;51.312;12.372;2023-05-03T02:15:01;10.30;;;3.43;;
3417;SDS011;68007;51.312;12.372;2023-05-03T02:17:29;6.50;;;2.80;;
3417;SDS011;68007;51.312;12.372;2023-05-03T02:19:56;5.37;;;3.40;;
3417;SDS011;68007;51.312;12.372;2023-05-03T02:22:24;6.90;;;3.77;;
3417;SDS011;68007;51.312;12.372;2023-05-03T02:24:51;4.53;;;2.93;;
3417;SDS011;68007;51.312;12.372;2023-05-03T02:27:19;4.43;;;2.90;;
3417;SDS011;68007;51.312;12.372;2023-05-03T02:29:46;4.43;;;3.30;;
3417;SDS011;68007;51.312;12.372;2023-05-03T02:32:15;3.77;;;2.70;;
3417;SDS011;68007;51.312;12.372;2023-05-03T02:34:45;4.87;;;2.90;;
3417;SDS011;68007;51.312;12.372;2023-05-03T02:37:15;5.70;;;3.43;;
3417;SDS011;68007;51.312;12.372;2023-05-03T02:39:42;7.30;;;3.60;;
3417;SDS011;68007;51.312;12.372;2023-05-03T02:42:10;8.60;;;2.97;;
3417;SDS011;68007;51.312;12.372;2023-05-03T02:44:37;4.70;;;3.20;;
3417;SDS011;68007;51.312;12.372;2023-05-03T02:47:05;5.57;;;2.80;;
3417;SDS011;68007;51.312;12.372;2023-05-03T02:49:35;6.40;;;3.33;;
3417;SDS011;68007;51.312;12.372;2023-05-03T02:52:02;5.10;;;2.87;;
3417;SDS011;68007;51.312;12.372;2023-05-03T02:54:30;6.13;;;2.63;;
3417;SDS011;68007;51.312;12.372;2023-05-03T02:56:57;8.83;;;3.10;;
3417;SDS011;68007;51.312;12.372;2023-05-03T02:59:26;7.23;;;3.17;;
3417;SDS011;68007;51.312;12.372;2023-05-03T03:01:54;4.17;;;3.00;;
3417;SDS011;68007;51.312;12.372;2023-05-03T03:04:21;6.40;;;2.90;;
3417;SDS011;68007;51.312;12.372;2023-05-03T03:06:50;6.00;;;3.10;;
3417;SDS011;68007;51.312;12.372;2023-05-03T03:09:18;8.17;;;3.17;;
3417;SDS011;68007;51.312;12.372;2023-05-03T03:11:45;5.00;;;3.00;;
3417;SDS011;68007;51.312;12.372;2023-05-03T03:14:13;7.47;;;3.70;;
3417;SDS011;68007;51.312;12.372;2023-05-03T03:16:40;5.03;;;3.43;;
3417;SDS011;68007;51.312;12.372;2023-05-03T03:19:08;8.50;;;3.30;;
3417;SDS011;68007;51.312;12.372;2023-05-03T03:21:36;5.00;;;2.90;;
3417;SDS011;68007;51.312;12.372;2023-05-03T03:24:05;6.70;;;3.63;;
3417;SDS011;68007;51.312;12.372;2023-05-03T03:26:32;10.20;;;3.30;;
3417;SDS011;68007;51.312;12.372;2023-05-03T03:29:00;6.87;;;3.23;;
3417;SDS011;68007;51.312;12.372;2023-05-03T03:31:28;6.70;;;2.80;;
3417;SDS011;68007;51.312;12.372;2023-05-03T03:33:55;4.70;;;2.97;;
3417;SDS011;68007;51.312;12.372;2023-05-03T03:36:23;4.43;;;3.10;;
3417;SDS011;68007;51.312;12.372;2023-05-03T03:38:52;7.90;;;3.40;;
3417;SDS011;68007;51.312;12.372;2023-05-03T03:41:21;9.00;;;4.23;;
3417;SDS011;68007;51.312;12.372;2023-05-03T03:43:49;10.37;;;5.63;;
3417;SDS011;68007;51.312;12.372;2023-05-03T03:46:16;9.30;;;5.10;;
3417;SDS011;68007;51.312;12.372;2023-05-03T03:48:44;7.00;;;4.43;;
3417;SDS011;68007;51.312;12.372;2023-05-03T03:51:11;11.30;;;3.90;;
3417;SDS011;68007;51.312;12.372;2023-05-03T03:53:39;12.63;;;4.40;;
3417;SDS011;68007;51.312;12.372;2023-05-03T03:56:06;8.23;;;3.60;;
3417;SDS011;68007;51.312;12.372;2023-05-03T03:58:35;5.47;;;3.50;;
3417;SDS011;68007;51.312;12.372;2023-05-03T04:01:03;10.30;;;3.80;;
3417;SDS011;68007;51.312;12.372;2023-05-03T04:03:31;9.47;;;3.60;;
3417;SDS011;68007;51.312;12.372;2023-05-03T04:05:58;7.23;;;3.40;;
3417;SDS011;68007;51.312;12.372;2023-05-03T04:08:26;7.73;;;3.60;;
3417;SDS011;68007;51.312;12.372;2023-05-03T04:10:53;7.67;;;3.73;;
3417;SDS011;68007;51.312;12.372;2023-05-03T04:13:21;8.33;;;3.57;;
3417;SDS011;68007;51.312;12.372;2023-05-03T04:15:52;4.10;;;2.73;;
3417;SDS011;68007;51.312;12.372;2023-05-03T04:18:20;6.17;;;3.10;;
3417;SDS011;68007;51.312;12.372;2023-05-03T04:20:48;11.77;;;3.57;;
3417;SDS011;68007;51.312;12.372;2023-05-03T04:23:15;5.10;;;3.60;;
3417;SDS011;68007;51.312;12.372;2023-05-03T04:25:43;11.40;;;3.60;;
3417;SDS011;68007;51.312;12.372;2023-05-03T04:28:13;5.47;;;3.43;;
3417;SDS011;68007;51.312;12.372;2023-05-03T04:30:40;7.70;;;3.63;;
3417;SDS011;68007;51.312;12.372;2023-05-03T04:33:11;8.63;;;3.77;;
3417;SDS011;68007;51.312;12.372;2023-05-03T04:35:39;5.07;;;3.47;;
3417;SDS011;68007;51.312;12.372;2023-05-03T04:38:06;9.70;;;3.30;;
3417;SDS011;68007;51.312;12.372;2023-05-03T04:40:34;4.67;;;3.20;;
3417;SDS011;68007;51.312;12.372;2023-05-03T04:43:02;6.50;;;3.20;;
3417;SDS011;68007;51.312;12.372;2023-05-03T04:45:30;10.03;;;3.50;;
3417;SDS011;68007;51.312;12.372;2023-05-03T04:47:59;9.20;;;2.83;;
3417;SDS011;68007;51.312;12.372;2023-05-03T04:50:31;5.53;;;3.27;;
3417;SDS011;68007;51.312;12.372;2023-05-03T04:52:59;5.00;;;2.90;;
3417;SDS011;68007;51.312;12.372;2023-05-03T04:55:26;7.63;;;3.00;;
3417;SDS011;68007;51.312;12.372;2023-05-03T04:57:54;6.77;;;2.50;;
3417;SDS011;68007;51.312;12.372;2023-05-03T05:00:22;6.07;;;3.73;;
3417;SDS011;68007;51.312;12.372;2023-05-03T05:02:52;7.23;;;3.23;;
3417;SDS011;68007;51.312;12.372;2023-05-03T05:05:19;5.70;;;2.93;;
3417;SDS011;68007;51.312;12.372;2023-05-03T05:07:48;5.87;;;3.00;;
3417;SDS011;68007;51.312;12.372;2023-05-03T05:10:15;6.50;;;2.80;;
3417;SDS011;68007;51.312;12.372;2023-05-03T05:12:43;10.87;;;3.40;;
3417;SDS011;68007;51.312;12.372;2023-05-03T05:15:10;13.73;;;3.43;;
3417;SDS011;68007;51.312;12.372;2023-05-03T05:17:38;5.77;;;2.53;;
3417;SDS011;68007;51.312;12.372;2023-05-03T05:20:06;5.47;;;2.73;;
3417;SDS011;68007;51.312;12.372;2023-05-03T05:22:37;8.70;;;2.90;;
3417;SDS011;68007;51.312;12.372;2023-05-03T05:25:06;7.47;;;2.90;;
3417;SDS011;68007;51.312;12.372;2023-05-03T05:27:34;5.87;;;2.70;;
3417;SDS011;68007;51.312;12.372;2023-05-03T05:30:01;4.43;;;3.23;;
3417;SDS011;68007;51.312;12.372;2023-05-03T05:32:31;5.73;;;3.13;;
3417;SDS011;68007;51.312;12.372;2023-05-03T05:34:58;5.37;;;2.80;;
3417;SDS011;68007;51.312;12.372;2023-05-03T05:37:26;4.83;;;2.77;;
3417;SDS011;68007;51.312;12.372;2023-05-03T05:39:53;5.83;;;2.90;;
3417;SDS011;68007;51.312;12.372;2023-05-03T05:42:22;11.63;;;3.07;;
3417;SDS011;68007;51.312;12.372;2023-05-03T05:44:50;4.20;;;2.70;;
3417;SDS011;68007;51.312;12.372;2023-05-03T05:47:17;4.37;;;2.40;;
3417;SDS011;68007;51.312;12.372;2023-05-03T05:49:46;7.90;;;2.40;;
3417;SDS011;68007;51.312;12.372;2023-05-03T05:52:13;6.50;;;2.60;;
3417;SDS011;68007;51.312;12.372;2023-05-03T05:54:41;4.47;;;2.27;;
3417;SDS011;68007;51.312;12.372;2023-05-03T05:57:08;11.40;;;3.00;;
3417;SDS011;68007;51.312;12.372;2023-05-03T05:59:38;6.40;;;2.97;;
3417;SDS011;68007;51.312;12.372;2023-05-03T06:02:06;8.83;;;2.83;;
3417;SDS011;68007;51.312;12.372;2023-05-03T06:04:41;6.10;;;2.70;;
3417;SDS011;68007;51.312;12.372;2023-05-03T06:07:08;11.60;;;2.77;;
3417;SDS011;68007;51.312;12.372;2023-05-03T06:09:36;7.40;;;2.83;;
3417;SDS011;68007;51.312;12.372;2023-05-03T06:12:04;4.37;;;2.60;;
3417;SDS011;68007;51.312;12.372;2023-05-03T06:14:31;5.93;;;2.30;;
3417;SDS011;68007;51.312;12.372;2023-05-03T06:17:00;4.83;;;2.17;;
3417;SDS011;68007;51.312;12.372;2023-05-03T06:19:28;3.87;;;2.57;;
3417;SDS011;68007;51.312;12.372;2023-05-03T06:21:56;5.23;;;2.70;;
3417;SDS011;68007;51.312;12.372;2023-05-03T06:24:23;7.57;;;3.63;;
3417;SDS011;68007;51.312;12.372;2023-05-03T06:26:55;3.77;;;3.00;;
3417;SDS011;68007;51.312;12.372;2023-05-03T06:29:25;4.60;;;2.63;;
3417;SDS011;68007;51.312;12.372;2023-05-03T06:31:53;7.40;;;2.77;;
3417;SDS011;68007;51.312;12.372;2023-05-03T06:34:22;5.07;;;2.83;;
3417;SDS011;68007;51.312;12.372;2023-05-03T06:36:49;9.33;;;2.67;;
3417;SDS011;68007;51.312;12.372;2023-05-03T06:39:17;8.10;;;2.77;;
3417;SDS011;68007;51.312;12.372;2023-05-03T06:41:44;6.40;;;2.80;;
3417;SDS011;68007;51.312;12.372;2023-05-03T06:44:12;7.23;;;2.77;;
3417;SDS011;68007;51.312;12.372;2023-05-03T06:46:39;9.03;;;3.00;;
3417;SDS011;68007;51.312;12.372;2023-05-03T06:49:07;6.37;;;2.40;;
3417;SDS011;68007;51.312;12.372;2023-05-03T06:51:36;4.30;;;2.77;;
3417;SDS011;68007;51.312;12.372;2023-05-03T06:54:03;4.30;;;2.47;;
3417;SDS011;68007;51.312;12.372;2023-05-03T06:56:34;8.00;;;2.80;;
3417;SDS011;68007;51.312;12.372;2023-05-03T06:59:02;6.77;;;2.57;;
3417;SDS011;68007;51.312;12.372;2023-05-03T07:01:30;5.30;;;2.67;;
3417;SDS011;68007;51.312;12.372;2023-05-03T07:03:58;4.83;;;2.80;;
3417;SDS011;68007;51.312;12.372;2023-05-03T07:06:26;5.60;;;2.60;;
3417;SDS011;68007;51.312;12.372;2023-05-03T07:08:55;11.93;;;2.63;;
3417;SDS011;68007;51.312;12.372;2023-05-03T07:11:22;7.17;;;2.37;;
3417;SDS011;68007;51.312;12.372;2023-05-03T07:13:50;6.47;;;2.90;;
3417;SDS011;68007;51.312;12.372;2023-05-03T07:16:19;8.13;;;2.43;;
3417;SDS011;68007;51.312;12.372;2023-05-03T07:18:47;4.83;;;2.73;;
3417;SDS011;68007;51.312;12.372;2023-05-03T07:21:14;7.60;;;2.50;;
3417;SDS011;68007;51.312;12.372;2023-05-03T07:23:42;3.80;;;2.40;;
3417;SDS011;68007;51.312;12.372;2023-05-03T07:26:11;5.47;;;2.23;;
3417;SDS011;68007;51.312;12.372;2023-05-03T07:28:39;5.00;;;2.27;;
3417;SDS011;68007;51.312;12.372;2023-05-03T07:31:06;3.67;;;2.10;;
3417;SDS011;68007;51.312;12.372;2023-05-03T07:33:34;5.30;;;2.30;;
3417;SDS011;68007;51.312;12.372;2023-05-03T07:36:02;3.70;;;2.20;;
3417;SDS011;68007;51.312;12.372;2023-05-03T07:38:29;10.03;;;3.50;;
3417;SDS011;68007;51.312;12.372;2023-05-03T07:40:58;3.57;;;2.30;;
3417;SDS011;68007;51.312;12.372;2023-05-03T07:43:27;6.33;;;2.60;;
3417;SDS011;68007;51.312;12.372;2023-05-03T07:45:55;5.77;;;2.60;;
3417;SDS011;68007;51.312;12.372;2023-05-03T07:48:23;5.73;;;2.30;;
3417;SDS011;68007;51.312;12.372;2023-05-03T07:50:51;6.10;;;2.57;;
3417;SDS011;68007;51.312;12.372;2023-05-03T07:53:18;8.43;;;3.17;;
3417;SDS011;68007;51.312;12.372;2023-05-03T07:55:46;5.37;;;2.20;;
3417;SDS011;68007;51.312;12.372;2023-05-03T07:58:13;7.17;;;2.77;;
3417;SDS011;68007;51.312;12.372;2023-05-03T08:00:42;8.33;;;2.60;;
3417;SDS011;68007;51.312;12.372;2023-05-03T08:03:10;2.47;;;1.90;;
3417;SDS011;68007;51.312;12.372;2023-05-03T08:05:37;5.10;;;2.40;;
3417;SDS011;68007;51.312;12.372;2023-05-03T08:08:05;4.17;;;2.23;;
3417;SDS011;68007;51.312;12.372;2023-05-03T08:10:33;4.57;;;2.03;;
3417;SDS011;68007;51.312;12.372;2023-05-03T08:13:02;6.20;;;2.83;;
3417;SDS011;68007;51.312;12.372;2023-05-03T08:15:31;5.10;;;1.87;;
3417;SDS011;68007;51.312;12.372;2023-05-03T08:18:00;4.17;;;2.10;;
3417;SDS011;68007;51.312;12.372;2023-05-03T08:20:27;3.40;;;2.10;;
3417;SDS011;68007;51.312;12.372;2023-05-03T08:22:55;3.70;;;2.23;;
3417;SDS011;68007;51.312;12.372;2023-05-03T08:25:24;3.20;;;1.90;;
3417;SDS011;68007;51.312;12.372;2023-05-03T08:27:53;13.37;;;2.57;;
3417;SDS011;68007;51.312;12.372;2023-05-03T08:30:20;7.40;;;2.77;;
3417;SDS011;68007;51.312;12.372;2023-05-03T08:32:48;4.87;;;1.93;;
3417;SDS011;68007;51.312;12.372;2023-05-03T08:35:17;5.30;;;2.40;;
3417;SDS011;68007;51.312;12.372;2023-05-03T08:37:45;4.43;;;2.30;;
3417;SDS011;68007;51.312;12.372;2023-05-03T08:40:12;7.50;;;2.30;;
3417;SDS011;68007;51.312;12.372;2023-05-03T08:42:41;8.23;;;2.40;;
3417;SDS011;68007;51.312;12.372;2023-05-03T08:45:10;6.10;;;2.80;;
3417;SDS011;68007;51.312;12.372;2023-05-03T08:47:40;6.40;;;1.97;;
3417;SDS011;68007;51.312;12.372;2023-05-03T08:50:09;2.90;;;1.90;;
3417;SDS011;68007;51.312;12.372;2023-05-03T08:52:39;3.90;;;2.10;;
3417;SDS011;68007;51.312;12.372;2023-05-03T08:55:08;6.10;;;2.70;;
3417;SDS011;68007;51.312;12.372;2023-05-03T08:57:36;5.50;;;2.33;;
3417;SDS011;68007;51.312;12.372;2023-05-03T09:00:06;2.83;;;2.17;;
3417;SDS011;68007;51.312;12.372;2023-05-03T09:02:35;8.13;;;2.90;;
3417;SDS011;68007;51.312;12.372;2023-05-03T09:05:05;9.17;;;3.10;;
3417;SDS011;68007;51.312;12.372;2023-05-03T09:08:00;9.07;;;2.37;;
3417;SDS011;68007;51.312;12.372;2023-05-03T09:10:29;3.47;;;2.30;;
3417;SDS011;68007;51.312;12.372;2023-05-03T09:12:56;8.23;;;2.57;;
3417;SDS011;68007;51.312;12.372;2023-05-03T09:15:25;4.87;;;2.73;;
3417;SDS011;68007;51.312;12.372;2023-05-03T09:18:10;5.67;;;2.33;;
3417;SDS011;68007;51.312;12.372;2023-05-03T09:20:40;3.30;;;2.17;;
3417;SDS011;68007;51.312;12.372;2023-05-03T09:23:17;6.37;;;2.30;;
3417;SDS011;68007;51.312;12.372;2023-05-03T09:25:46;4.60;;;2.10;;
3417;SDS011;68007;51.312;12.372;2023-05-03T09:28:15;9.83;;;2.40;;
3417;SDS011;68007;51.312;12.372;2023-05-03T09:30:43;6.57;;;2.80;;
3417;SDS011;68007;51.312;12.372;2023-05-03T09:33:12;10.47;;;2.80;;
3417;SDS011;68007;51.312;12.372;2023-05-03T09:35:54;8.90;;;2.60;;
3417;SDS011;68007;51.312;12.372;2023-05-03T09:38:27;5.67;;;2.70;;
3417;SDS011;68007;51.312;12.372;2023-05-03T09:40:55;6.67;;;2.97;;
3417;SDS011;68007;51.312;12.372;2023-05-03T09:43:23;9.80;;;2.60;;
3417;SDS011;68007;51.312;12.372;2023-05-03T09:45:51;9.13;;;3.07;;
3417;SDS011;68007;51.312;12.372;2023-05-03T09:48:19;5.23;;;2.10;;
3417;SDS011;68007;51.312;12.372;2023-05-03T09:50:48;8.10;;;2.30;;
3417;SDS011;68007;51.312;12.372;2023-05-03T09:53:16;9.83;;;3.20;;
3417;SDS011;68007;51.312;12.372;2023-05-03T09:55:48;5.90;;;2.80;;
3417;SDS011;68007;51.312;12.372;2023-05-03T09:58:17;5.50;;;3.00;;
3417;SDS011;68007;51.312;12.372;2023-05-03T10:00:46;4.50;;;2.70;;
3417;SDS011;68007;51.312;12.372;2023-05-03T10:03:17;9.17;;;2.80;;
3417;SDS011;68007;51.312;12.372;2023-05-03T10:05:49;3.30;;;2.40;;
3417;SDS011;68007;51.312;12.372;2023-05-03T10:08:18;2.63;;;2.03;;
3417;SDS011;68007;51.312;12.372;2023-05-03T10:10:54;6.53;;;2.83;;
3417;SDS011;68007;51.312;12.372;2023-05-03T10:13:22;6.20;;;2.33;;
3417;SDS011;68007;51.312;12.372;2023-05-03T10:15:52;3.80;;;2.20;;
3417;SDS011;68007;51.312;12.372;2023-05-03T10:18:23;6.30;;;2.83;;
3417;SDS011;68007;51.312;12.372;2023-05-03T10:20:56;7.63;;;2.67;;
3417;SDS011;68007;51.312;12.372;2023-05-03T10:23:31;6.27;;;2.73;;
3417;SDS011;68007;51.312;12.372;2023-05-03T10:26:15;9.43;;;2.90;;
3417;SDS011;68007;51.312;12.372;2023-05-03T10:28:43;14.63;;;2.80;;
3417;SDS011;68007;51.312;12.372;2023-05-03T10:34:18;6.20;;;2.90;;
3417;SDS011;68007;51.312;12.372;2023-05-03T10:36:46;10.73;;;3.00;;
3417;SDS011;68007;51.312;12.372;2023-05-03T10:39:15;8.17;;;3.33;;
3417;SDS011;68007;51.312;12.372;2023-05-03T10:41:46;7.53;;;2.50;;
3417;SDS011;68007;51.312;12.372;2023-05-03T10:44:24;7.60;;;2.53;;
3417;SDS011;68007;51.312;12.372;2023-05-03T10:46:52;3.63;;;2.87;;
3417;SDS011;68007;51.312;12.372;2023-05-03T10:49:21;10.27;;;3.30;;
3417;SDS011;68007;51.312;12.372;2023-05-03T10:51:51;8.73;;;2.67;;
3417;SDS011;68007;51.312;12.372;2023-05-03T10:54:18;4.63;;;2.43;;
3417;SDS011;68007;51.312;12.372;2023-05-03T10:56:48;9.57;;;2.70;;
3417;SDS011;68007;51.312;12.372;2023-05-03T10:59:16;8.10;;;2.67;;
3417;SDS011;68007;51.312;12.372;2023-05-03T11:01:44;5.90;;;2.80;;
3417;SDS011;68007;51.312;12.372;2023-05-03T11:04:17;6.93;;;2.70;;
3417;SDS011;68007;51.312;12.372;2023-05-03T11:07:04;4.30;;;2.90;;
3417;SDS011;68007;51.312;12.372;2023-05-03T11:09:31;7.93;;;3.17;;
3417;SDS011;68007;51.312;12.372;2023-05-03T11:12:05;7.67;;;2.83;;
3417;SDS011;68007;51.312;12.372;2023-05-03T11:14:34;9.13;;;2.43;;
3417;SDS011;68007;51.312;12.372;2023-05-03T11:17:02;9.57;;;2.73;;
3417;SDS011;68007;51.312;12.372;2023-05-03T11:19:29;3.80;;;2.67;;
3417;SDS011;68007;51.312;12.372;2023-05-03T11:21:57;11.13;;;3.57;;
3417;SDS011;68007;51.312;12.372;2023-05-03T11:24:24;10.70;;;2.70;;
3417;SDS011;68007;51.312;12.372;2023-05-03T11:26:53;7.17;;;2.80;;
3417;SDS011;68007;51.312;12.372;2023-05-03T11:29:22;6.40;;;2.73;;
3417;SDS011;68007;51.312;12.372;2023-05-03T11:31:50;12.33;;;2.87;;
3417;SDS011;68007;51.312;12.372;2023-05-03T11:34:18;7.03;;;2.80;;
3417;SDS011;68007;51.312;12.372;2023-05-03T11:36:45;2.80;;;2.27;;
3417;SDS011;68007;51.312;12.372;2023-05-03T11:39:14;4.87;;;2.33;;
3417;SDS011;68007;51.312;12.372;2023-05-03T11:41:41;4.13;;;2.17;;
3417;SDS011;68007;51.312;12.372;2023-05-03T11:44:09;4.67;;;2.90;;
3417;SDS011;68007;51.312;12.372;2023-05-03T11:46:38;7.57;;;2.80;;
3417;SDS011;68007;51.312;12.372;2023-05-03T11:49:05;3.50;;;2.20;;
3417;SDS011;68007;51.312;12.372;2023-05-03T11:51:33;11.60;;;2.47;;
3417;SDS011;68007;51.312;12.372;2023-05-03T11:54:01;6.70;;;2.47;;
3417;SDS011;68007;51.312;12.372;2023-05-03T11:56:29;4.53;;;2.20;;
3417;SDS011;68007;51.312;12.372;2023-05-03T11:58:58;4.67;;;1.93;;
3417;SDS011;68007;51.312;12.372;2023-05-03T12:01:26;4.10;;;2.17;;
3417;SDS011;68007;51.312;12.372;2023-05-03T12:03:57;4.20;;;2.40;;
3417;SDS011;68007;51.312;12.372;2023-05-03T12:06:26;7.90;;;2.43;;
3417;SDS011;68007;51.312;12.372;2023-05-03T12:08:54;3.13;;;2.03;;
3417;SDS011;68007;51.312;12.372;2023-05-03T12:11:22;6.23;;;3.03;;
3417;SDS011;68007;51.312;12.372;2023-05-03T12:13:55;5.43;;;2.23;;
3417;SDS011;68007;51.312;12.372;2023-05-03T12:16:27;4.67;;;2.00;;
3417;SDS011;68007;51.312;12.372;2023-05-03T12:18:56;6.37;;;2.13;;
3417;SDS011;68007;51.312;12.372;2023-05-03T12:21:42;3.63;;;1.87;;
3417;SDS011;68007;51.312;12.372;2023-05-03T12:24:10;2.30;;;1.60;;
3417;SDS011;68007;51.312;12.372;2023-05-03T12:26:42;4.23;;;2.33;;
3417;SDS011;68007;51.312;12.372;2023-05-03T12:29:10;5.63;;;1.90;;
3417;SDS011;68007;51.312;12.372;2023-05-03T12:31:38;8.00;;;2.20;;
3417;SDS011;68007;51.312;12.372;2023-05-03T12:34:07;7.60;;;2.40;;
3417;SDS011;68007;51.312;12.372;2023-05-03T12:36:34;6.60;;;2.13;;
3417;SDS011;68007;51.312;12.372;2023-05-03T12:39:03;8.27;;;2.00;;
3417;SDS011;68007;51.312;12.372;2023-05-03T12:41:32;3.33;;;2.20;;
3417;SDS011;68007;51.312;12.372;2023-05-03T12:44:00;4.13;;;1.90;;
3417;SDS011;68007;51.312;12.372;2023-05-03T12:46:28;5.53;;;2.03;;
3417;SDS011;68007;51.312;12.372;2023-05-03T12:48:55;3.50;;;1.73;;
3417;SDS011;68007;51.312;12.372;2023-05-03T12:51:24;5.60;;;2.40;;
3417;SDS011;68007;51.312;12.372;2023-05-03T12:53:54;7.73;;;2.00;;
3417;SDS011;68007;51.312;12.372;2023-05-03T12:56:21;5.17;;;1.80;;
3417;SDS011;68007;51.312;12.372;2023-05-03T12:58:49;6.60;;;1.50;;
3417;SDS011;68007;51.312;12.372;2023-05-03T13:01:17;6.30;;;2.10;;
3417;SDS011;68007;51.312;12.372;2023-05-03T13:03:46;4.93;;;2.00;;
3417;SDS011;68007;51.312;12.372;2023-05-03T13:06:13;4.47;;;2.03;;
3417;SDS011;68007;51.312;12.372;2023-05-03T13:08:42;4.90;;;2.13;;
3417;SDS011;68007;51.312;12.372;2023-05-03T13:11:10;8.73;;;2.50;;
3417;SDS011;68007;51.312;12.372;2023-05-03T13:13:38;2.73;;;1.80;;
3417;SDS011;68007;51.312;12.372;2023-05-03T13:16:05;4.10;;;2.10;;
3417;SDS011;68007;51.312;12.372;2023-05-03T13:18:34;6.27;;;2.13;;
3417;SDS011;68007;51.312;12.372;2023-05-03T13:21:02;8.33;;;2.50;;
3417;SDS011;68007;51.312;12.372;2023-05-03T13:23:29;7.33;;;1.70;;
3417;SDS011;68007;51.312;12.372;2023-05-03T13:26:00;6.23;;;1.80;;
3417;SDS011;68007;51.312;12.372;2023-05-03T13:28:27;5.50;;;1.83;;
3417;SDS011;68007;51.312;12.372;2023-05-03T13:30:55;6.03;;;2.27;;
3417;SDS011;68007;51.312;12.372;2023-05-03T13:33:22;5.97;;;2.30;;
3417;SDS011;68007;51.312;12.372;2023-05-03T13:35:50;3.10;;;1.77;;
3417;SDS011;68007;51.312;12.372;2023-05-03T13:38:17;4.90;;;2.37;;
3417;SDS011;68007;51.312;12.372;2023-05-03T13:40:45;3.10;;;2.10;;
3417;SDS011;68007;51.312;12.372;2023-05-03T13:43:14;4.97;;;2.00;;
3417;SDS011;68007;51.312;12.372;2023-05-03T13:45:41;6.20;;;1.97;;
3417;SDS011;68007;51.312;12.372;2023-05-03T13:48:09;11.43;;;2.17;;
3417;SDS011;68007;51.312;12.372;2023-05-03T13:50:36;3.37;;;2.10;;
3417;SDS011;68007;51.312;12.372;2023-05-03T13:53:06;10.47;;;2.60;;
3417;SDS011;68007;51.312;12.372;2023-05-03T13:55:33;10.20;;;3.60;;
3417;SDS011;68007;51.312;12.372;2023-05-03T13:58:01;5.47;;;1.90;;
3417;SDS011;68007;51.312;12.372;2023-05-03T14:00:29;11.13;;;2.57;;
3417;SDS011;68007;51.312;12.372;2023-05-03T14:02:57;5.03;;;1.90;;
3417;SDS011;68007;51.312;12.372;2023-05-03T14:05:24;7.03;;;2.37;;
3417;SDS011;68007;51.312;12.372;2023-05-03T14:07:52;7.37;;;2.33;;
3417;SDS011;68007;51.312;12.372;2023-05-03T14:10:20;6.27;;;2.17;;
3417;SDS011;68007;51.312;12.372;2023-05-03T14:12:48;6.80;;;2.10;;
3417;SDS011;68007;51.312;12.372;2023-05-03T14:15:16;5.13;;;2.30;;
3417;SDS011;68007;51.312;12.372;2023-05-03T14:17:46;8.17;;;2.03;;
3417;SDS011;68007;51.312;12.372;2023-05-03T14:20:14;8.23;;;2.87;;
3417;SDS011;68007;51.312;12.372;2023-05-03T14:22:42;3.03;;;2.20;;
3417;SDS011;68007;51.312;12.372;2023-05-03T14:25:10;15.13;;;2.77;;
3417;SDS011;68007;51.312;12.372;2023-05-03T14:27:38;6.40;;;3.77;;
3417;SDS011;68007;51.312;12.372;2023-05-03T14:30:06;4.23;;;2.00;;
3417;SDS011;68007;51.312;12.372;2023-05-03T14:32:34;6.00;;;1.80;;
3417;SDS011;68007;51.312;12.372;2023-05-03T14:35:03;4.60;;;2.17;;
3417;SDS011;68007;51.312;12.372;2023-05-03T14:37:31;6.83;;;1.97;;
3417;SDS011;68007;51.312;12.372;2023-05-03T14:39:59;7.30;;;1.87;;
3417;SDS011;68007;51.312;12.372;2023-05-03T14:42:28;7.20;;;1.83;;
3417;SDS011;68007;51.312;12.372;2023-05-03T14:44:56;3.40;;;1.60;;
3417;SDS011;68007;51.312;12.372;2023-05-03T14:47:23;8.87;;;2.47;;
3417;SDS011;68007;51.312;12.372;2023-05-03T14:49:51;8.17;;;2.23;;
3417;SDS011;68007;51.312;12.372;2023-05-03T14:52:20;3.70;;;1.93;;
3417;SDS011;68007;51.312;12.372;2023-05-03T14:54:47;7.40;;;3.00;;
3417;SDS011;68007;51.312;12.372;2023-05-03T14:57:15;3.27;;;1.87;;